sensor_id;sensor_type;location;lat;lon;timestamp;P1;durP1;ratioP1;P2;durP2;ratioP2
10945;SDS011;5525;42.648;23.368;2024-03-06T00:01:50;30.08;;;19.02;;
10945;SDS011;5525;42.648;23.368;2024-03-06T00:04:18;26.98;;;18.15;;
10945;SDS011;5525;42.648;23.368;2024-03-06T00:06:44;27.75;;;17.20;;
10945;SDS011;5525;42.648;23.368;2024-03-06T00:09:11;26.83;;;16.67;;
10945;SDS011;5525;42.648;23.368;2024-03-06T00:11:38;25.08;;;16.20;;
10945;SDS011;5525;42.648;23.368;2024-03-06T00:14:05;23.85;;;16.20;;
10945;SDS011;5525;42.648;23.368;2024-03-06T00:16:32;26.98;;;17.75;;
10945;SDS011;5525;42.648;23.368;2024-03-06T00:18:59;24.70;;;17.42;;
10945;SDS011;5525;42.648;23.368;2024-03-06T00:21:27;25.30;;;17.38;;
10945;SDS011;5525;42.648;23.368;2024-03-06T00:23:55;26.63;;;16.35;;
10945;SDS011;5525;42.648;23.368;2024-03-06T00:26:21;23.90;;;16.02;;
10945;SDS011;5525;42.648;23.368;2024-03-06T00:28:48;25.95;;;16.88;;
10945;SDS011;5525;42.648;23.368;2024-03-06T00:31:15;25.73;;;15.68;;
10945;SDS011;5525;42.648;23.368;2024-03-06T00:33:42;22.95;;;15.18;;
10945;SDS011;5525;42.648;23.368;2024-03-06T00:36:08;24.05;;;15.68;;
10945;SDS011;5525;42.648;23.368;2024-03-06T00:38:37;24.48;;;14.27;;
10945;SDS011;5525;42.648;23.368;2024-03-06T00:41:03;23.27;;;14.38;;
10945;SDS011;5525;42.648;23.368;2024-03-06T00:43:30;23.58;;;14.32;;
10945;SDS011;5525;42.648;23.368;2024-03-06T00:45:57;23.15;;;14.30;;
10945;SDS011;5525;42.648;23.368;2024-03-06T00:48:24;23.58;;;14.18;;
10945;SDS011;5525;42.648;23.368;2024-03-06T00:50:51;22.33;;;14.00;;
10945;SDS011;5525;42.648;23.368;2024-03-06T00:53:18;24.10;;;14.30;;
10945;SDS011;5525;42.648;23.368;2024-03-06T00:55:46;22.52;;;14.85;;
10945;SDS011;5525;42.648;23.368;2024-03-06T00:58:13;21.30;;;14.60;;
10945;SDS011;5525;42.648;23.368;2024-03-06T01:00:40;24.50;;;15.15;;
10945;SDS011;5525;42.648;23.368;2024-03-06T01:03:07;24.75;;;15.48;;
10945;SDS011;5525;42.648;23.368;2024-03-06T01:05:33;24.25;;;15.43;;
10945;SDS011;5525;42.648;23.368;2024-03-06T01:08:00;21.98;;;14.55;;
10945;SDS011;5525;42.648;23.368;2024-03-06T01:10:27;27.65;;;16.63;;
10945;SDS011;5525;42.648;23.368;2024-03-06T01:12:55;27.02;;;17.23;;
10945;SDS011;5525;42.648;23.368;2024-03-06T01:15:22;29.08;;;17.23;;
10945;SDS011;5525;42.648;23.368;2024-03-06T01:17:49;28.10;;;15.50;;
10945;SDS011;5525;42.648;23.368;2024-03-06T01:20:16;26.60;;;17.00;;
10945;SDS011;5525;42.648;23.368;2024-03-06T01:22:43;28.05;;;16.33;;
10945;SDS011;5525;42.648;23.368;2024-03-06T01:25:11;27.70;;;16.80;;
10945;SDS011;5525;42.648;23.368;2024-03-06T01:27:38;27.52;;;16.65;;
10945;SDS011;5525;42.648;23.368;2024-03-06T01:30:06;24.90;;;16.48;;
10945;SDS011;5525;42.648;23.368;2024-03-06T01:32:34;23.40;;;16.38;;
10945;SDS011;5525;42.648;23.368;2024-03-06T01:35:01;29.30;;;16.75;;
10945;SDS011;5525;42.648;23.368;2024-03-06T01:37:28;28.55;;;16.38;;
10945;SDS011;5525;42.648;23.368;2024-03-06T01:39:54;27.52;;;17.45;;
10945;SDS011;5525;42.648;23.368;2024-03-06T01:42:21;26.38;;;17.30;;
10945;SDS011;5525;42.648;23.368;2024-03-06T01:44:48;24.48;;;16.48;;
10945;SDS011;5525;42.648;23.368;2024-03-06T01:47:17;27.85;;;16.98;;
10945;SDS011;5525;42.648;23.368;2024-03-06T01:49:43;27.10;;;17.70;;
10945;SDS011;5525;42.648;23.368;2024-03-06T01:52:11;23.23;;;16.48;;
10945;SDS011;5525;42.648;23.368;2024-03-06T01:54:40;24.40;;;15.93;;
10945;SDS011;5525;42.648;23.368;2024-03-06T01:57:08;25.40;;;15.65;;
10945;SDS011;5525;42.648;23.368;2024-03-06T01:59:35;32.15;;;16.23;;
10945;SDS011;5525;42.648;23.368;2024-03-06T02:02:03;25.23;;;16.50;;
10945;SDS011;5525;42.648;23.368;2024-03-06T02:04:34;28.77;;;16.38;;
10945;SDS011;5525;42.648;23.368;2024-03-06T02:07:01;25.10;;;15.40;;
10945;SDS011;5525;42.648;23.368;2024-03-06T02:09:28;23.50;;;15.25;;
10945;SDS011;5525;42.648;23.368;2024-03-06T02:11:55;29.15;;;16.73;;
10945;SDS011;5525;42.648;23.368;2024-03-06T02:14:23;26.20;;;15.85;;
10945;SDS011;5525;42.648;23.368;2024-03-06T02:16:50;23.52;;;14.95;;
10945;SDS011;5525;42.648;23.368;2024-03-06T02:19:17;27.60;;;16.23;;
10945;SDS011;5525;42.648;23.368;2024-03-06T02:21:45;23.55;;;15.27;;
10945;SDS011;5525;42.648;23.368;2024-03-06T02:24:12;27.13;;;16.45;;
10945;SDS011;5525;42.648;23.368;2024-03-06T02:26:39;26.00;;;17.25;;
10945;SDS011;5525;42.648;23.368;2024-03-06T02:29:06;27.67;;;16.35;;
10945;SDS011;5525;42.648;23.368;2024-03-06T02:31:35;26.80;;;16.63;;
10945;SDS011;5525;42.648;23.368;2024-03-06T02:34:04;27.63;;;16.98;;
10945;SDS011;5525;42.648;23.368;2024-03-06T02:36:31;30.25;;;18.40;;
10945;SDS011;5525;42.648;23.368;2024-03-06T02:39:00;26.02;;;16.73;;
10945;SDS011;5525;42.648;23.368;2024-03-06T02:41:29;27.45;;;17.13;;
10945;SDS011;5525;42.648;23.368;2024-03-06T02:43:56;24.48;;;16.75;;
10945;SDS011;5525;42.648;23.368;2024-03-06T02:46:23;29.42;;;17.42;;
10945;SDS011;5525;42.648;23.368;2024-03-06T02:48:49;29.17;;;17.85;;
10945;SDS011;5525;42.648;23.368;2024-03-06T02:51:17;27.42;;;17.15;;
10945;SDS011;5525;42.648;23.368;2024-03-06T02:53:45;31.33;;;18.13;;
10945;SDS011;5525;42.648;23.368;2024-03-06T02:56:16;29.33;;;17.52;;
10945;SDS011;5525;42.648;23.368;2024-03-06T02:58:44;28.20;;;18.40;;
10945;SDS011;5525;42.648;23.368;2024-03-06T03:01:10;30.23;;;18.10;;
10945;SDS011;5525;42.648;23.368;2024-03-06T03:03:39;30.85;;;18.30;;
10945;SDS011;5525;42.648;23.368;2024-03-06T03:06:06;28.33;;;17.95;;
10945;SDS011;5525;42.648;23.368;2024-03-06T03:08:33;27.90;;;16.90;;
10945;SDS011;5525;42.648;23.368;2024-03-06T03:11:00;30.48;;;17.98;;
10945;SDS011;5525;42.648;23.368;2024-03-06T03:13:29;28.60;;;17.05;;
10945;SDS011;5525;42.648;23.368;2024-03-06T03:15:56;27.10;;;17.45;;
10945;SDS011;5525;42.648;23.368;2024-03-06T03:18:23;27.27;;;17.00;;
10945;SDS011;5525;42.648;23.368;2024-03-06T03:20:50;26.45;;;17.60;;
10945;SDS011;5525;42.648;23.368;2024-03-06T03:23:17;29.60;;;17.80;;
10945;SDS011;5525;42.648;23.368;2024-03-06T03:25:47;31.83;;;18.67;;
10945;SDS011;5525;42.648;23.368;2024-03-06T03:28:14;33.03;;;18.98;;
10945;SDS011;5525;42.648;23.368;2024-03-06T03:30:43;31.30;;;19.58;;
10945;SDS011;5525;42.648;23.368;2024-03-06T03:33:10;28.83;;;19.23;;
10945;SDS011;5525;42.648;23.368;2024-03-06T03:35:37;30.23;;;20.00;;
10945;SDS011;5525;42.648;23.368;2024-03-06T03:38:04;30.45;;;18.65;;
10945;SDS011;5525;42.648;23.368;2024-03-06T03:40:31;31.08;;;18.65;;
10945;SDS011;5525;42.648;23.368;2024-03-06T03:42:59;33.70;;;20.13;;
10945;SDS011;5525;42.648;23.368;2024-03-06T03:45:31;29.90;;;19.00;;
10945;SDS011;5525;42.648;23.368;2024-03-06T03:48:01;32.47;;;19.20;;
10945;SDS011;5525;42.648;23.368;2024-03-06T03:50:28;28.38;;;17.83;;
10945;SDS011;5525;42.648;23.368;2024-03-06T03:52:55;28.25;;;17.58;;
10945;SDS011;5525;42.648;23.368;2024-03-06T03:55:26;30.67;;;17.67;;
10945;SDS011;5525;42.648;23.368;2024-03-06T03:57:52;32.08;;;18.30;;
10945;SDS011;5525;42.648;23.368;2024-03-06T04:00:19;31.67;;;19.00;;
10945;SDS011;5525;42.648;23.368;2024-03-06T04:02:48;33.75;;;18.65;;
10945;SDS011;5525;42.648;23.368;2024-03-06T04:05:16;27.25;;;17.95;;
10945;SDS011;5525;42.648;23.368;2024-03-06T04:07:43;31.85;;;17.92;;
10945;SDS011;5525;42.648;23.368;2024-03-06T04:10:10;27.98;;;17.58;;
10945;SDS011;5525;42.648;23.368;2024-03-06T04:12:37;29.45;;;17.95;;
10945;SDS011;5525;42.648;23.368;2024-03-06T04:15:05;28.77;;;18.00;;
10945;SDS011;5525;42.648;23.368;2024-03-06T04:17:34;30.85;;;18.33;;
10945;SDS011;5525;42.648;23.368;2024-03-06T04:20:01;27.73;;;18.13;;
10945;SDS011;5525;42.648;23.368;2024-03-06T04:22:30;30.20;;;18.17;;
10945;SDS011;5525;42.648;23.368;2024-03-06T04:24:57;28.58;;;18.42;;
10945;SDS011;5525;42.648;23.368;2024-03-06T04:27:24;28.88;;;18.13;;
10945;SDS011;5525;42.648;23.368;2024-03-06T04:29:51;29.55;;;18.48;;
10945;SDS011;5525;42.648;23.368;2024-03-06T04:32:18;27.65;;;18.20;;
10945;SDS011;5525;42.648;23.368;2024-03-06T04:34:45;32.83;;;18.17;;
10945;SDS011;5525;42.648;23.368;2024-03-06T04:37:12;30.20;;;18.30;;
10945;SDS011;5525;42.648;23.368;2024-03-06T04:39:41;29.42;;;17.30;;
10945;SDS011;5525;42.648;23.368;2024-03-06T04:42:08;29.35;;;18.02;;
10945;SDS011;5525;42.648;23.368;2024-03-06T04:44:34;31.63;;;18.73;;
10945;SDS011;5525;42.648;23.368;2024-03-06T04:47:02;30.05;;;17.70;;
10945;SDS011;5525;42.648;23.368;2024-03-06T04:49:32;30.63;;;17.63;;
10945;SDS011;5525;42.648;23.368;2024-03-06T04:51:59;27.35;;;17.58;;
10945;SDS011;5525;42.648;23.368;2024-03-06T04:54:26;34.55;;;17.98;;
10945;SDS011;5525;42.648;23.368;2024-03-06T04:56:54;32.47;;;16.58;;
10945;SDS011;5525;42.648;23.368;2024-03-06T04:59:21;28.67;;;16.77;;
10945;SDS011;5525;42.648;23.368;2024-03-06T05:01:48;24.30;;;16.00;;
10945;SDS011;5525;42.648;23.368;2024-03-06T05:04:15;30.58;;;17.17;;
10945;SDS011;5525;42.648;23.368;2024-03-06T05:06:41;26.88;;;15.75;;
10945;SDS011;5525;42.648;23.368;2024-03-06T05:09:08;31.20;;;15.75;;
10945;SDS011;5525;42.648;23.368;2024-03-06T05:11:36;29.10;;;15.43;;
10945;SDS011;5525;42.648;23.368;2024-03-06T05:14:05;26.48;;;15.30;;
10945;SDS011;5525;42.648;23.368;2024-03-06T05:16:32;23.05;;;14.13;;
10945;SDS011;5525;42.648;23.368;2024-03-06T05:18:59;28.83;;;17.20;;
10945;SDS011;5525;42.648;23.368;2024-03-06T05:21:26;27.90;;;17.80;;
10945;SDS011;5525;42.648;23.368;2024-03-06T05:23:53;29.73;;;17.35;;
10945;SDS011;5525;42.648;23.368;2024-03-06T05:26:20;29.23;;;17.58;;
10945;SDS011;5525;42.648;23.368;2024-03-06T05:28:47;28.90;;;17.75;;
10945;SDS011;5525;42.648;23.368;2024-03-06T05:31:16;29.20;;;17.42;;
10945;SDS011;5525;42.648;23.368;2024-03-06T05:33:46;30.73;;;18.20;;
10945;SDS011;5525;42.648;23.368;2024-03-06T05:36:13;30.88;;;17.75;;
10945;SDS011;5525;42.648;23.368;2024-03-06T05:38:40;30.65;;;17.50;;
10945;SDS011;5525;42.648;23.368;2024-03-06T05:41:07;31.40;;;18.70;;
10945;SDS011;5525;42.648;23.368;2024-03-06T05:43:34;27.08;;;18.10;;
10945;SDS011;5525;42.648;23.368;2024-03-06T05:46:01;35.30;;;17.63;;
10945;SDS011;5525;42.648;23.368;2024-03-06T05:48:31;31.30;;;18.40;;
10945;SDS011;5525;42.648;23.368;2024-03-06T05:50:58;31.58;;;17.35;;
10945;SDS011;5525;42.648;23.368;2024-03-06T05:53:25;40.45;;;17.85;;
10945;SDS011;5525;42.648;23.368;2024-03-06T05:55:51;31.50;;;16.85;;
10945;SDS011;5525;42.648;23.368;2024-03-06T05:58:19;42.67;;;19.17;;
10945;SDS011;5525;42.648;23.368;2024-03-06T06:00:47;30.38;;;17.17;;
10945;SDS011;5525;42.648;23.368;2024-03-06T06:03:14;31.50;;;18.10;;
10945;SDS011;5525;42.648;23.368;2024-03-06T06:05:42;27.60;;;16.80;;
10945;SDS011;5525;42.648;23.368;2024-03-06T06:08:09;27.27;;;16.55;;
10945;SDS011;5525;42.648;23.368;2024-03-06T06:10:36;28.45;;;18.40;;
10945;SDS011;5525;42.648;23.368;2024-03-06T06:13:03;29.52;;;17.42;;
10945;SDS011;5525;42.648;23.368;2024-03-06T06:15:30;30.38;;;17.50;;
10945;SDS011;5525;42.648;23.368;2024-03-06T06:17:57;30.77;;;18.98;;
10945;SDS011;5525;42.648;23.368;2024-03-06T06:20:24;30.20;;;17.52;;
10945;SDS011;5525;42.648;23.368;2024-03-06T06:22:53;30.67;;;18.17;;
10945;SDS011;5525;42.648;23.368;2024-03-06T06:25:20;33.90;;;16.73;;
10945;SDS011;5525;42.648;23.368;2024-03-06T06:27:46;29.05;;;17.40;;
10945;SDS011;5525;42.648;23.368;2024-03-06T06:30:14;30.33;;;17.17;;
10945;SDS011;5525;42.648;23.368;2024-03-06T06:32:42;34.63;;;18.42;;
10945;SDS011;5525;42.648;23.368;2024-03-06T06:35:09;26.98;;;18.08;;
10945;SDS011;5525;42.648;23.368;2024-03-06T06:37:38;27.08;;;16.42;;
10945;SDS011;5525;42.648;23.368;2024-03-06T06:40:08;24.90;;;17.20;;
10945;SDS011;5525;42.648;23.368;2024-03-06T06:42:38;24.08;;;13.70;;
10945;SDS011;5525;42.648;23.368;2024-03-06T06:45:12;24.60;;;13.27;;
10945;SDS011;5525;42.648;23.368;2024-03-06T06:47:39;21.17;;;13.45;;
10945;SDS011;5525;42.648;23.368;2024-03-06T06:50:06;22.80;;;13.65;;
10945;SDS011;5525;42.648;23.368;2024-03-06T06:52:34;24.33;;;14.10;;
10945;SDS011;5525;42.648;23.368;2024-03-06T06:55:02;24.70;;;14.25;;
10945;SDS011;5525;42.648;23.368;2024-03-06T06:57:30;22.50;;;13.98;;
10945;SDS011;5525;42.648;23.368;2024-03-06T06:59:58;23.42;;;14.45;;
10945;SDS011;5525;42.648;23.368;2024-03-06T07:02:24;22.17;;;14.32;;
10945;SDS011;5525;42.648;23.368;2024-03-06T07:04:52;20.40;;;13.55;;
10945;SDS011;5525;42.648;23.368;2024-03-06T07:07:19;23.58;;;13.73;;
10945;SDS011;5525;42.648;23.368;2024-03-06T07:09:46;24.02;;;14.50;;
10945;SDS011;5525;42.648;23.368;2024-03-06T07:12:14;20.55;;;13.48;;
10945;SDS011;5525;42.648;23.368;2024-03-06T07:14:42;24.30;;;13.50;;
10945;SDS011;5525;42.648;23.368;2024-03-06T07:17:09;21.42;;;13.95;;
10945;SDS011;5525;42.648;23.368;2024-03-06T07:19:35;21.83;;;12.73;;
10945;SDS011;5525;42.648;23.368;2024-03-06T07:22:02;20.65;;;13.15;;
10945;SDS011;5525;42.648;23.368;2024-03-06T07:24:29;16.40;;;12.38;;
10945;SDS011;5525;42.648;23.368;2024-03-06T07:26:56;19.73;;;13.65;;
10945;SDS011;5525;42.648;23.368;2024-03-06T07:29:22;21.88;;;14.07;;
10945;SDS011;5525;42.648;23.368;2024-03-06T07:31:50;19.25;;;13.00;;
10945;SDS011;5525;42.648;23.368;2024-03-06T07:34:18;21.17;;;12.32;;
10945;SDS011;5525;42.648;23.368;2024-03-06T07:36:45;25.25;;;16.42;;
10945;SDS011;5525;42.648;23.368;2024-03-06T07:39:12;27.90;;;17.90;;
10945;SDS011;5525;42.648;23.368;2024-03-06T07:41:39;26.92;;;18.48;;
10945;SDS011;5525;42.648;23.368;2024-03-06T07:44:06;27.70;;;18.08;;
10945;SDS011;5525;42.648;23.368;2024-03-06T07:46:33;26.80;;;17.15;;
10945;SDS011;5525;42.648;23.368;2024-03-06T07:49:02;30.30;;;17.98;;
10945;SDS011;5525;42.648;23.368;2024-03-06T07:51:30;26.30;;;17.77;;
10945;SDS011;5525;42.648;23.368;2024-03-06T07:53:57;31.63;;;19.75;;
10945;SDS011;5525;42.648;23.368;2024-03-06T07:56:24;25.90;;;18.27;;
10945;SDS011;5525;42.648;23.368;2024-03-06T07:58:52;28.55;;;17.23;;
10945;SDS011;5525;42.648;23.368;2024-03-06T08:01:19;24.10;;;16.65;;
10945;SDS011;5525;42.648;23.368;2024-03-06T08:03:47;26.60;;;17.35;;
10945;SDS011;5525;42.648;23.368;2024-03-06T08:06:15;25.88;;;16.75;;
10945;SDS011;5525;42.648;23.368;2024-03-06T08:08:42;30.38;;;17.90;;
10945;SDS011;5525;42.648;23.368;2024-03-06T08:11:09;26.30;;;17.33;;
10945;SDS011;5525;42.648;23.368;2024-03-06T08:13:36;26.17;;;16.73;;
10945;SDS011;5525;42.648;23.368;2024-03-06T08:16:04;24.30;;;17.58;;
10945;SDS011;5525;42.648;23.368;2024-03-06T08:18:31;22.10;;;16.40;;
10945;SDS011;5525;42.648;23.368;2024-03-06T08:20:58;24.55;;;16.70;;
10945;SDS011;5525;42.648;23.368;2024-03-06T08:23:27;25.08;;;16.95;;
10945;SDS011;5525;42.648;23.368;2024-03-06T08:25:54;23.98;;;16.98;;
10945;SDS011;5525;42.648;23.368;2024-03-06T08:28:20;25.92;;;16.83;;
10945;SDS011;5525;42.648;23.368;2024-03-06T08:30:47;27.45;;;17.75;;
10945;SDS011;5525;42.648;23.368;2024-03-06T08:33:14;33.13;;;17.48;;
10945;SDS011;5525;42.648;23.368;2024-03-06T08:35:42;26.52;;;16.48;;
10945;SDS011;5525;42.648;23.368;2024-03-06T08:38:09;22.95;;;17.00;;
10945;SDS011;5525;42.648;23.368;2024-03-06T08:40:37;29.35;;;18.02;;
10945;SDS011;5525;42.648;23.368;2024-03-06T08:43:06;26.85;;;16.63;;
10945;SDS011;5525;42.648;23.368;2024-03-06T08:45:34;23.13;;;16.05;;
10945;SDS011;5525;42.648;23.368;2024-03-06T08:48:01;23.20;;;15.30;;
10945;SDS011;5525;42.648;23.368;2024-03-06T08:50:28;19.60;;;14.20;;
10945;SDS011;5525;42.648;23.368;2024-03-06T08:52:55;22.88;;;14.35;;
10945;SDS011;5525;42.648;23.368;2024-03-06T08:55:23;25.05;;;15.10;;
10945;SDS011;5525;42.648;23.368;2024-03-06T08:57:50;21.67;;;15.07;;
10945;SDS011;5525;42.648;23.368;2024-03-06T09:00:18;24.85;;;16.17;;
10945;SDS011;5525;42.648;23.368;2024-03-06T09:02:45;22.10;;;15.93;;
10945;SDS011;5525;42.648;23.368;2024-03-06T09:05:11;22.52;;;15.68;;
10945;SDS011;5525;42.648;23.368;2024-03-06T09:07:39;23.42;;;17.60;;
10945;SDS011;5525;42.648;23.368;2024-03-06T09:10:06;21.08;;;17.35;;
10945;SDS011;5525;42.648;23.368;2024-03-06T09:12:34;23.38;;;16.67;;
10945;SDS011;5525;42.648;23.368;2024-03-06T09:15:03;22.60;;;17.80;;
10945;SDS011;5525;42.648;23.368;2024-03-06T09:17:32;22.58;;;16.30;;
10945;SDS011;5525;42.648;23.368;2024-03-06T09:19:59;22.00;;;15.80;;
10945;SDS011;5525;42.648;23.368;2024-03-06T09:22:34;19.13;;;15.05;;
10945;SDS011;5525;42.648;23.368;2024-03-06T09:25:02;19.70;;;16.05;;
10945;SDS011;5525;42.648;23.368;2024-03-06T09:27:30;19.55;;;13.70;;
10945;SDS011;5525;42.648;23.368;2024-03-06T09:29:57;16.77;;;14.93;;
10945;SDS011;5525;42.648;23.368;2024-03-06T09:32:25;18.77;;;14.65;;
10945;SDS011;5525;42.648;23.368;2024-03-06T09:34:52;16.05;;;14.05;;
10945;SDS011;5525;42.648;23.368;2024-03-06T09:37:19;17.48;;;14.57;;
10945;SDS011;5525;42.648;23.368;2024-03-06T09:39:46;17.67;;;14.57;;
10945;SDS011;5525;42.648;23.368;2024-03-06T09:42:13;15.93;;;12.88;;
10945;SDS011;5525;42.648;23.368;2024-03-06T09:44:41;15.52;;;12.02;;
10945;SDS011;5525;42.648;23.368;2024-03-06T09:47:08;15.82;;;12.35;;
10945;SDS011;5525;42.648;23.368;2024-03-06T09:49:41;14.90;;;11.38;;
10945;SDS011;5525;42.648;23.368;2024-03-06T09:52:08;17.85;;;12.60;;
10945;SDS011;5525;42.648;23.368;2024-03-06T09:54:36;15.88;;;12.30;;
10945;SDS011;5525;42.648;23.368;2024-03-06T09:57:04;15.93;;;12.23;;
10945;SDS011;5525;42.648;23.368;2024-03-06T09:59:31;16.38;;;12.00;;
10945;SDS011;5525;42.648;23.368;2024-03-06T10:01:59;16.05;;;12.05;;
10945;SDS011;5525;42.648;23.368;2024-03-06T10:04:32;15.30;;;10.85;;
10945;SDS011;5525;42.648;23.368;2024-03-06T10:07:00;13.27;;;9.88;;
10945;SDS011;5525;42.648;23.368;2024-03-06T10:09:27;12.60;;;8.90;;
10945;SDS011;5525;42.648;23.368;2024-03-06T10:11:56;15.63;;;11.38;;
10945;SDS011;5525;42.648;23.368;2024-03-06T10:14:23;13.68;;;11.32;;
10945;SDS011;5525;42.648;23.368;2024-03-06T10:16:53;14.77;;;10.32;;
10945;SDS011;5525;42.648;23.368;2024-03-06T10:19:21;11.70;;;9.18;;
10945;SDS011;5525;42.648;23.368;2024-03-06T10:21:49;12.45;;;9.10;;
10945;SDS011;5525;42.648;23.368;2024-03-06T10:24:19;11.30;;;9.13;;
10945;SDS011;5525;42.648;23.368;2024-03-06T10:26:48;13.40;;;9.18;;
10945;SDS011;5525;42.648;23.368;2024-03-06T10:29:16;15.43;;;9.25;;
10945;SDS011;5525;42.648;23.368;2024-03-06T10:31:48;12.60;;;8.90;;
10945;SDS011;5525;42.648;23.368;2024-03-06T10:34:16;13.38;;;8.43;;
10945;SDS011;5525;42.648;23.368;2024-03-06T10:36:43;10.95;;;7.85;;
10945;SDS011;5525;42.648;23.368;2024-03-06T10:39:10;10.52;;;7.80;;
10945;SDS011;5525;42.648;23.368;2024-03-06T10:41:39;11.18;;;7.40;;
10945;SDS011;5525;42.648;23.368;2024-03-06T10:44:08;9.95;;;7.75;;
10945;SDS011;5525;42.648;23.368;2024-03-06T10:46:40;11.75;;;9.05;;
10945;SDS011;5525;42.648;23.368;2024-03-06T10:49:11;11.88;;;8.80;;
10945;SDS011;5525;42.648;23.368;2024-03-06T10:51:39;9.88;;;8.57;;
10945;SDS011;5525;42.648;23.368;2024-03-06T10:54:08;10.63;;;8.02;;
10945;SDS011;5525;42.648;23.368;2024-03-06T10:56:37;10.50;;;7.40;;
10945;SDS011;5525;42.648;23.368;2024-03-06T10:59:09;8.93;;;6.82;;
10945;SDS011;5525;42.648;23.368;2024-03-06T11:01:38;8.80;;;7.28;;
10945;SDS011;5525;42.648;23.368;2024-03-06T11:04:05;9.63;;;7.65;;
10945;SDS011;5525;42.648;23.368;2024-03-06T11:06:33;10.20;;;6.93;;
10945;SDS011;5525;42.648;23.368;2024-03-06T11:09:00;8.65;;;6.90;;
10945;SDS011;5525;42.648;23.368;2024-03-06T11:11:28;11.55;;;6.88;;
10945;SDS011;5525;42.648;23.368;2024-03-06T11:14:01;9.93;;;6.63;;
10945;SDS011;5525;42.648;23.368;2024-03-06T11:16:31;11.88;;;7.90;;
10945;SDS011;5525;42.648;23.368;2024-03-06T11:19:05;12.18;;;7.45;;
10945;SDS011;5525;42.648;23.368;2024-03-06T11:21:33;8.20;;;7.43;;
10945;SDS011;5525;42.648;23.368;2024-03-06T11:24:13;7.78;;;6.68;;
10945;SDS011;5525;42.648;23.368;2024-03-06T11:26:42;10.20;;;7.03;;
10945;SDS011;5525;42.648;23.368;2024-03-06T11:29:13;9.77;;;6.55;;
10945;SDS011;5525;42.648;23.368;2024-03-06T11:31:55;7.95;;;6.57;;
10945;SDS011;5525;42.648;23.368;2024-03-06T11:34:25;8.95;;;6.45;;
10945;SDS011;5525;42.648;23.368;2024-03-06T11:36:53;11.45;;;7.60;;
10945;SDS011;5525;42.648;23.368;2024-03-06T11:39:22;8.68;;;6.60;;
10945;SDS011;5525;42.648;23.368;2024-03-06T11:41:49;9.23;;;6.32;;
10945;SDS011;5525;42.648;23.368;2024-03-06T11:44:18;10.05;;;7.03;;
10945;SDS011;5525;42.648;23.368;2024-03-06T11:46:47;10.05;;;7.10;;
10945;SDS011;5525;42.648;23.368;2024-03-06T11:49:15;10.35;;;7.30;;
10945;SDS011;5525;42.648;23.368;2024-03-06T11:51:45;8.18;;;6.45;;
10945;SDS011;5525;42.648;23.368;2024-03-06T11:54:15;8.75;;;6.75;;
10945;SDS011;5525;42.648;23.368;2024-03-06T11:56:44;9.55;;;7.22;;
10945;SDS011;5525;42.648;23.368;2024-03-06T11:59:12;9.02;;;6.85;;
10945;SDS011;5525;42.648;23.368;2024-03-06T12:01:41;10.52;;;6.85;;
10945;SDS011;5525;42.648;23.368;2024-03-06T12:04:08;9.70;;;6.80;;
10945;SDS011;5525;42.648;23.368;2024-03-06T12:06:36;8.50;;;6.90;;
10945;SDS011;5525;42.648;23.368;2024-03-06T12:09:04;7.60;;;6.80;;
10945;SDS011;5525;42.648;23.368;2024-03-06T12:11:36;8.10;;;7.10;;
10945;SDS011;5525;42.648;23.368;2024-03-06T12:14:03;9.75;;;7.00;;
10945;SDS011;5525;42.648;23.368;2024-03-06T12:16:30;10.15;;;7.28;;
10945;SDS011;5525;42.648;23.368;2024-03-06T12:18:58;8.30;;;6.40;;
10945;SDS011;5525;42.648;23.368;2024-03-06T12:21:27;11.18;;;6.57;;
10945;SDS011;5525;42.648;23.368;2024-03-06T12:24:04;11.43;;;7.22;;
10945;SDS011;5525;42.648;23.368;2024-03-06T12:26:32;7.20;;;6.45;;
10945;SDS011;5525;42.648;23.368;2024-03-06T12:29:05;13.77;;;6.90;;
10945;SDS011;5525;42.648;23.368;2024-03-06T12:31:34;7.85;;;6.38;;
10945;SDS011;5525;42.648;23.368;2024-03-06T12:34:03;10.85;;;7.07;;
10945;SDS011;5525;42.648;23.368;2024-03-06T12:36:31;11.63;;;6.40;;
10945;SDS011;5525;42.648;23.368;2024-03-06T12:39:00;12.25;;;6.28;;
10945;SDS011;5525;42.648;23.368;2024-03-06T12:41:27;6.93;;;5.90;;
10945;SDS011;5525;42.648;23.368;2024-03-06T12:43:55;8.80;;;6.25;;
10945;SDS011;5525;42.648;23.368;2024-03-06T12:46:22;9.80;;;6.57;;
10945;SDS011;5525;42.648;23.368;2024-03-06T12:48:51;8.45;;;5.93;;
10945;SDS011;5525;42.648;23.368;2024-03-06T12:51:20;8.38;;;6.30;;
10945;SDS011;5525;42.648;23.368;2024-03-06T12:53:47;8.73;;;6.40;;
10945;SDS011;5525;42.648;23.368;2024-03-06T12:56:14;9.85;;;6.60;;
10945;SDS011;5525;42.648;23.368;2024-03-06T12:58:41;9.48;;;5.97;;
10945;SDS011;5525;42.648;23.368;2024-03-06T13:01:08;9.15;;;6.80;;
10945;SDS011;5525;42.648;23.368;2024-03-06T13:03:35;9.00;;;5.60;;
10945;SDS011;5525;42.648;23.368;2024-03-06T13:06:02;10.30;;;6.25;;
10945;SDS011;5525;42.648;23.368;2024-03-06T13:08:31;8.55;;;5.80;;
10945;SDS011;5525;42.648;23.368;2024-03-06T13:10:58;8.88;;;5.45;;
10945;SDS011;5525;42.648;23.368;2024-03-06T13:13:25;9.55;;;6.00;;
10945;SDS011;5525;42.648;23.368;2024-03-06T13:15:54;8.35;;;5.63;;
10945;SDS011;5525;42.648;23.368;2024-03-06T13:18:20;9.63;;;5.88;;
10945;SDS011;5525;42.648;23.368;2024-03-06T13:20:47;7.05;;;4.72;;
10945;SDS011;5525;42.648;23.368;2024-03-06T13:23:14;6.50;;;4.43;;
10945;SDS011;5525;42.648;23.368;2024-03-06T13:25:42;7.55;;;4.43;;
10945;SDS011;5525;42.648;23.368;2024-03-06T13:28:10;10.60;;;4.97;;
10945;SDS011;5525;42.648;23.368;2024-03-06T13:30:37;8.63;;;5.15;;
10945;SDS011;5525;42.648;23.368;2024-03-06T13:33:04;7.68;;;4.85;;
10945;SDS011;5525;42.648;23.368;2024-03-06T13:35:32;6.25;;;4.90;;
10945;SDS011;5525;42.648;23.368;2024-03-06T13:37:59;7.93;;;5.00;;
10945;SDS011;5525;42.648;23.368;2024-03-06T13:40:28;9.88;;;5.22;;
10945;SDS011;5525;42.648;23.368;2024-03-06T13:42:56;7.05;;;4.57;;
10945;SDS011;5525;42.648;23.368;2024-03-06T13:45:23;5.28;;;4.78;;
10945;SDS011;5525;42.648;23.368;2024-03-06T13:47:50;6.35;;;4.68;;
10945;SDS011;5525;42.648;23.368;2024-03-06T13:50:17;6.70;;;4.70;;
10945;SDS011;5525;42.648;23.368;2024-03-06T13:52:44;5.15;;;3.97;;
10945;SDS011;5525;42.648;23.368;2024-03-06T13:55:11;5.30;;;4.03;;
10945;SDS011;5525;42.648;23.368;2024-03-06T13:57:38;7.65;;;4.63;;
10945;SDS011;5525;42.648;23.368;2024-03-06T14:00:08;6.95;;;4.53;;
10945;SDS011;5525;42.648;23.368;2024-03-06T14:02:43;8.93;;;4.65;;
10945;SDS011;5525;42.648;23.368;2024-03-06T14:05:11;7.57;;;4.22;;
10945;SDS011;5525;42.648;23.368;2024-03-06T14:07:38;5.25;;;4.05;;
10945;SDS011;5525;42.648;23.368;2024-03-06T14:10:06;5.20;;;4.50;;
10945;SDS011;5525;42.648;23.368;2024-03-06T14:12:34;7.50;;;4.80;;
10945;SDS011;5525;42.648;23.368;2024-03-06T14:15:02;6.57;;;5.00;;
10945;SDS011;5525;42.648;23.368;2024-03-06T14:17:31;7.45;;;4.65;;
10945;SDS011;5525;42.648;23.368;2024-03-06T14:19:59;5.68;;;4.72;;
10945;SDS011;5525;42.648;23.368;2024-03-06T14:22:26;10.50;;;5.40;;
10945;SDS011;5525;42.648;23.368;2024-03-06T14:24:52;8.82;;;5.35;;
10945;SDS011;5525;42.648;23.368;2024-03-06T14:27:19;12.75;;;5.25;;
10945;SDS011;5525;42.648;23.368;2024-03-06T14:29:46;8.40;;;4.95;;
10945;SDS011;5525;42.648;23.368;2024-03-06T14:32:14;9.02;;;5.88;;